sensor_id;sensor_type;location;lat;lon;timestamp;P1;P2;P0
65383;PMS5003;51986;52.788;41.368;2024-01-30T00:00:39;29.25;24.75;18.50
65383;PMS5003;51986;52.788;41.368;2024-01-30T00:03:06;26.00;21.75;17.00
65383;PMS5003;51986;52.788;41.368;2024-01-30T00:05:33;26.25;22.50;18.00
65383;PMS5003;51986;52.788;41.368;2024-01-30T00:08:01;23.25;20.75;15.75
65383;PMS5003;51986;52.788;41.368;2024-01-30T00:10:28;20.00;19.00;15.00
65383;PMS5003;51986;52.788;41.368;2024-01-30T00:12:55;20.00;19.00;15.00
65383;PMS5003;51986;52.788;41.368;2024-01-30T00:15:22;19.00;18.00;14.00
65383;PMS5003;51986;52.788;41.368;2024-01-30T00:17:49;21.75;19.25;14.75
65383;PMS5003;51986;52.788;41.368;2024-01-30T00:20:16;24.25;21.00;16.00
65383;PMS5003;51986;52.788;41.368;2024-01-30T00:22:43;23.00;20.25;16.00
65383;PMS5003;51986;52.788;41.368;2024-01-30T00:25:10;19.00;18.00;14.00
65383;PMS5003;51986;52.788;41.368;2024-01-30T00:27:37;22.50;20.00;15.75
65383;PMS5003;51986;52.788;41.368;2024-01-30T00:30:04;19.50;19.00;14.00
65383;PMS5003;51986;52.788;41.368;2024-01-30T00:32:32;22.50;19.00;14.50
65383;PMS5003;51986;52.788;41.368;2024-01-30T00:34:59;25.00;21.00;17.00
65383;PMS5003;51986;52.788;41.368;2024-01-30T00:37:26;20.00;19.00;14.50
65383;PMS5003;51986;52.788;41.368;2024-01-30T00:39:53;20.00;18.50;14.00
65383;PMS5003;51986;52.788;41.368;2024-01-30T00:42:20;19.50;16.25;13.00
65383;PMS5003;51986;52.788;41.368;2024-01-30T00:44:47;19.00;17.75;14.00
65383;PMS5003;51986;52.788;41.368;2024-01-30T00:47:14;19.00;17.00;14.00
65383;PMS5003;51986;52.788;41.368;2024-01-30T00:49:42;20.00;18.00;14.00
65383;PMS5003;51986;52.788;41.368;2024-01-30T00:52:09;17.25;15.50;12.00
65383;PMS5003;51986;52.788;41.368;2024-01-30T00:54:36;21.00;18.75;15.00
65383;PMS5003;51986;52.788;41.368;2024-01-30T00:57:03;20.00;18.00;15.00
65383;PMS5003;51986;52.788;41.368;2024-01-30T00:59:30;22.50;20.00;16.00
65383;PMS5003;51986;52.788;41.368;2024-01-30T01:01:57;20.00;19.00;15.00
65383;PMS5003;51986;52.788;41.368;2024-01-30T01:04:24;23.50;20.50;16.25
65383;PMS5003;51986;52.788;41.368;2024-01-30T01:06:51;28.00;23.00;18.00
65383;PMS5003;51986;52.788;41.368;2024-01-30T01:09:19;29.00;24.00;18.00
65383;PMS5003;51986;52.788;41.368;2024-01-30T01:11:46;28.00;23.75;18.00
65383;PMS5003;51986;52.788;41.368;2024-01-30T01:14:13;22.00;19.00;16.00
65383;PMS5003;51986;52.788;41.368;2024-01-30T01:16:40;20.00;18.00;14.00
65383;PMS5003;51986;52.788;41.368;2024-01-30T01:19:07;24.00;20.50;15.75
65383;PMS5003;51986;52.788;41.368;2024-01-30T01:21:34;27.50;22.00;18.00
65383;PMS5003;51986;52.788;41.368;2024-01-30T01:24:01;22.00;20.00;15.00
65383;PMS5003;51986;52.788;41.368;2024-01-30T01:26:28;19.50;18.00;14.00
65383;PMS5003;51986;52.788;41.368;2024-01-30T01:28:55;17.00;16.25;12.00
65383;PMS5003;51986;52.788;41.368;2024-01-30T01:31:22;17.75;15.25;13.00
65383;PMS5003;51986;52.788;41.368;2024-01-30T01:33:50;23.00;20.50;15.75
65383;PMS5003;51986;52.788;41.368;2024-01-30T01:36:17;20.00;19.00;15.00
65383;PMS5003;51986;52.788;41.368;2024-01-30T01:38:44;19.00;18.00;12.50
65383;PMS5003;51986;52.788;41.368;2024-01-30T01:41:14;17.00;16.00;12.50
65383;PMS5003;51986;52.788;41.368;2024-01-30T01:43:41;21.25;19.00;14.75
65383;PMS5003;51986;52.788;41.368;2024-01-30T01:46:08;19.75;18.00;14.00
65383;PMS5003;51986;52.788;41.368;2024-01-30T01:48:36;16.00;16.00;12.00
65383;PMS5003;51986;52.788;41.368;2024-01-30T01:51:04;21.00;19.25;14.75
65383;PMS5003;51986;52.788;41.368;2024-01-30T01:53:31;19.00;18.00;14.00
65383;PMS5003;51986;52.788;41.368;2024-01-30T01:55:59;21.25;19.75;15.75
65383;PMS5003;51986;52.788;41.368;2024-01-30T01:58:27;26.00;22.25;18.00
65383;PMS5003;51986;52.788;41.368;2024-01-30T02:00:54;22.75;20.00;15.00
65383;PMS5003;51986;52.788;41.368;2024-01-30T02:03:23;24.00;21.00;16.00
65383;PMS5003;51986;52.788;41.368;2024-01-30T02:05:51;20.25;19.25;14.00
65383;PMS5003;51986;52.788;41.368;2024-01-30T02:08:18;18.00;16.00;12.00
65383;PMS5003;51986;52.788;41.368;2024-01-30T02:10:45;20.25;19.00;14.75
65383;PMS5003;51986;52.788;41.368;2024-01-30T02:13:12;25.00;21.00;17.00
65383;PMS5003;51986;52.788;41.368;2024-01-30T02:15:39;17.50;17.25;14.00
65383;PMS5003;51986;52.788;41.368;2024-01-30T02:18:07;15.00;15.00;13.00
65383;PMS5003;51986;52.788;41.368;2024-01-30T02:20:34;15.75;14.00;12.00
65383;PMS5003;51986;52.788;41.368;2024-01-30T02:23:03;15.25;14.00;12.00
65383;PMS5003;51986;52.788;41.368;2024-01-30T02:25:33;18.00;17.50;13.75
65383;PMS5003;51986;52.788;41.368;2024-01-30T02:28:00;18.50;16.50;14.00
65383;PMS5003;51986;52.788;41.368;2024-01-30T02:30:27;20.25;18.50;14.00
65383;PMS5003;51986;52.788;41.368;2024-01-30T02:32:54;23.50;20.50;15.00
65383;PMS5003;51986;52.788;41.368;2024-01-30T02:35:21;26.50;22.00;16.00
65383;PMS5003;51986;52.788;41.368;2024-01-30T02:37:48;20.25;18.00;14.00
65383;PMS5003;51986;52.788;41.368;2024-01-30T02:40:15;16.00;16.00;13.00
65383;PMS5003;51986;52.788;41.368;2024-01-30T02:42:42;19.25;18.25;14.50
65383;PMS5003;51986;52.788;41.368;2024-01-30T02:45:10;20.00;17.75;14.00
65383;PMS5003;51986;52.788;41.368;2024-01-30T02:47:38;20.00;19.00;14.00
65383;PMS5003;51986;52.788;41.368;2024-01-30T02:50:06;20.25;18.50;14.00
65383;PMS5003;51986;52.788;41.368;2024-01-30T02:52:33;22.00;19.00;14.50
65383;PMS5003;51986;52.788;41.368;2024-01-30T02:55:00;22.25;20.00;16.00
65383;PMS5003;51986;52.788;41.368;2024-01-30T02:57:28;24.00;21.00;16.00
65383;PMS5003;51986;52.788;41.368;2024-01-30T02:59:55;20.00;18.00;14.00
65383;PMS5003;51986;52.788;41.368;2024-01-30T03:02:22;22.50;20.50;16.50
65383;PMS5003;51986;52.788;41.368;2024-01-30T03:04:50;21.50;19.00;15.00
65383;PMS5003;51986;52.788;41.368;2024-01-30T03:07:17;23.50;19.50;16.00
65383;PMS5003;51986;52.788;41.368;2024-01-30T03:09:44;22.50;19.00;16.00
65383;PMS5003;51986;52.788;41.368;2024-01-30T03:12:11;16.50;16.00;13.00
65383;PMS5003;51986;52.788;41.368;2024-01-30T03:14:38;16.00;15.00;13.00
65383;PMS5003;51986;52.788;41.368;2024-01-30T03:17:05;22.25;19.75;15.75
65383;PMS5003;51986;52.788;41.368;2024-01-30T03:19:32;20.75;20.00;16.00
65383;PMS5003;51986;52.788;41.368;2024-01-30T03:22:00;25.25;21.75;17.00
65383;PMS5003;51986;52.788;41.368;2024-01-30T03:24:27;22.00;20.00;15.00
65383;PMS5003;51986;52.788;41.368;2024-01-30T03:26:54;20.00;19.00;15.00
65383;PMS5003;51986;52.788;41.368;2024-01-30T03:29:21;23.50;20.50;16.50
65383;PMS5003;51986;52.788;41.368;2024-01-30T03:31:48;26.00;22.00;17.00
65383;PMS5003;51986;52.788;41.368;2024-01-30T03:34:15;26.75;23.00;18.00
65383;PMS5003;51986;52.788;41.368;2024-01-30T03:36:42;22.00;20.00;15.00
65383;PMS5003;51986;52.788;41.368;2024-01-30T03:39:10;27.00;22.50;16.75
65383;PMS5003;51986;52.788;41.368;2024-01-30T03:41:37;26.00;22.00;17.00
65383;PMS5003;51986;52.788;41.368;2024-01-30T03:44:04;28.00;23.00;17.75
65383;PMS5003;51986;52.788;41.368;2024-01-30T03:46:30;26.75;23.00;18.00
65383;PMS5003;51986;52.788;41.368;2024-01-30T03:48:58;20.00;19.00;15.00
65383;PMS5003;51986;52.788;41.368;2024-01-30T03:51:25;20.00;19.00;15.00
65383;PMS5003;51986;52.788;41.368;2024-01-30T03:53:52;18.00;15.00;13.00
65383;PMS5003;51986;52.788;41.368;2024-01-30T03:56:19;18.25;15.00;13.00
65383;PMS5003;51986;52.788;41.368;2024-01-30T03:58:45;24.25;21.25;16.00
65383;PMS5003;51986;52.788;41.368;2024-01-30T04:01:13;24.75;22.00;16.00
65383;PMS5003;51986;52.788;41.368;2024-01-30T04:03:41;18.75;18.00;13.00
65383;PMS5003;51986;52.788;41.368;2024-01-30T04:06:08;22.25;20.00;15.25
65383;PMS5003;51986;52.788;41.368;2024-01-30T04:08:35;18.50;18.00;14.00
65383;PMS5003;51986;52.788;41.368;2024-01-30T04:11:04;22.00;20.00;14.75
65383;PMS5003;51986;52.788;41.368;2024-01-30T04:13:32;19.00;17.75;13.00
65383;PMS5003;51986;52.788;41.368;2024-01-30T04:16:00;17.00;15.00;12.00
65383;PMS5003;51986;52.788;41.368;2024-01-30T04:18:27;19.75;18.00;14.75
65383;PMS5003;51986;52.788;41.368;2024-01-30T04:20:55;17.50;17.00;15.00
65383;PMS5003;51986;52.788;41.368;2024-01-30T04:23:22;22.00;19.25;15.00
65383;PMS5003;51986;52.788;41.368;2024-01-30T04:25:49;22.00;20.00;16.00
65383;PMS5003;51986;52.788;41.368;2024-01-30T04:28:16;16.00;15.25;12.50
65383;PMS5003;51986;52.788;41.368;2024-01-30T04:30:43;20.25;19.25;15.00
65383;PMS5003;51986;52.788;41.368;2024-01-30T04:33:11;20.50;19.00;15.00
65383;PMS5003;51986;52.788;41.368;2024-01-30T04:35:38;17.25;17.00;13.00
65383;PMS5003;51986;52.788;41.368;2024-01-30T04:38:05;20.75;20.00;15.00
65383;PMS5003;51986;52.788;41.368;2024-01-30T04:40:32;21.25;19.25;15.00
65383;PMS5003;51986;52.788;41.368;2024-01-30T04:42:59;18.00;17.50;15.00
65383;PMS5003;51986;52.788;41.368;2024-01-30T04:45:26;17.00;16.00;13.00
65383;PMS5003;51986;52.788;41.368;2024-01-30T04:47:53;23.75;21.25;16.50
65383;PMS5003;51986;52.788;41.368;2024-01-30T04:50:20;20.00;18.50;15.00
65383;PMS5003;51986;52.788;41.368;2024-01-30T04:52:47;22.75;20.50;17.00
65383;PMS5003;51986;52.788;41.368;2024-01-30T04:55:14;25.25;22.00;16.50
65383;PMS5003;51986;52.788;41.368;2024-01-30T04:57:42;26.00;22.00;17.00
65383;PMS5003;51986;52.788;41.368;2024-01-30T05:00:09;29.00;24.00;18.00
65383;PMS5003;51986;52.788;41.368;2024-01-30T05:02:37;28.00;22.00;17.00
65383;PMS5003;51986;52.788;41.368;2024-01-30T05:05:04;22.00;20.00;15.00
65383;PMS5003;51986;52.788;41.368;2024-01-30T05:07:31;26.25;22.00;17.75
65383;PMS5003;51986;52.788;41.368;2024-01-30T05:09:58;28.00;22.75;18.00
65383;PMS5003;51986;52.788;41.368;2024-01-30T05:12:28;20.75;19.50;15.00
65383;PMS5003;51986;52.788;41.368;2024-01-30T05:14:55;24.75;22.00;16.50
65383;PMS5003;51986;52.788;41.368;2024-01-30T05:17:22;21.25;19.25;15.00
65383;PMS5003;51986;52.788;41.368;2024-01-30T05:19:49;24.00;21.00;16.00
65383;PMS5003;51986;52.788;41.368;2024-01-30T05:22:16;24.75;20.00;15.50
65383;PMS5003;51986;52.788;41.368;2024-01-30T05:24:44;24.25;20.75;16.25
65383;PMS5003;51986;52.788;41.368;2024-01-30T05:27:11;21.75;20.00;15.00
65383;PMS5003;51986;52.788;41.368;2024-01-30T05:29:38;18.75;18.00;14.00
65383;PMS5003;51986;52.788;41.368;2024-01-30T05:32:05;21.00;18.75;14.75
65383;PMS5003;51986;52.788;41.368;2024-01-30T05:34:32;25.75;22.00;17.25
65383;PMS5003;51986;52.788;41.368;2024-01-30T05:37:00;29.00;23.50;18.00
65383;PMS5003;51986;52.788;41.368;2024-01-30T05:39:28;29.00;25.00;19.00
65383;PMS5003;51986;52.788;41.368;2024-01-30T05:41:55;23.50;20.00;15.25
65383;PMS5003;51986;52.788;41.368;2024-01-30T05:44:22;23.75;21.50;17.00
65383;PMS5003;51986;52.788;41.368;2024-01-30T05:46:51;27.00;23.00;18.00
65383;PMS5003;51986;52.788;41.368;2024-01-30T05:49:21;23.00;21.00;17.00
65383;PMS5003;51986;52.788;41.368;2024-01-30T05:51:48;21.00;19.00;15.00
65383;PMS5003;51986;52.788;41.368;2024-01-30T05:54:15;20.00;17.00;15.00
65383;PMS5003;51986;52.788;41.368;2024-01-30T05:56:45;24.00;21.00;16.50
65383;PMS5003;51986;52.788;41.368;2024-01-30T05:59:12;28.00;23.75;18.00
65383;PMS5003;51986;52.788;41.368;2024-01-30T06:01:45;29.00;24.00;18.00
65383;PMS5003;51986;52.788;41.368;2024-01-30T06:04:15;22.25;20.00;15.25
65383;PMS5003;51986;52.788;41.368;2024-01-30T06:06:44;20.25;19.00;14.00
65383;PMS5003;51986;52.788;41.368;2024-01-30T06:09:11;21.25;19.00;14.00
65383;PMS5003;51986;52.788;41.368;2024-01-30T06:11:38;27.00;23.00;18.00
65383;PMS5003;51986;52.788;41.368;2024-01-30T06:14:05;26.00;23.00;17.00
65383;PMS5003;51986;52.788;41.368;2024-01-30T06:16:32;23.00;21.00;16.00
65383;PMS5003;51986;52.788;41.368;2024-01-30T06:18:59;24.00;21.00;16.00
65383;PMS5003;51986;52.788;41.368;2024-01-30T06:21:26;27.00;23.00;17.25
65383;PMS5003;51986;52.788;41.368;2024-01-30T06:23:53;31.00;25.00;19.00
65383;PMS5003;51986;52.788;41.368;2024-01-30T06:26:20;25.25;21.50;17.00
65383;PMS5003;51986;52.788;41.368;2024-01-30T06:28:48;28.25;23.00;18.00
65383;PMS5003;51986;52.788;41.368;2024-01-30T06:31:15;26.25;22.00;17.00
65383;PMS5003;51986;52.788;41.368;2024-01-30T06:33:42;28.50;23.00;17.25
65383;PMS5003;51986;52.788;41.368;2024-01-30T06:36:10;25.50;21.00;16.25
65383;PMS5003;51986;52.788;41.368;2024-01-30T06:38:43;28.00;23.50;18.25
65383;PMS5003;51986;52.788;41.368;2024-01-30T06:41:13;31.00;26.00;19.25
65383;PMS5003;51986;52.788;41.368;2024-01-30T06:43:40;25.00;23.00;17.00
65383;PMS5003;51986;52.788;41.368;2024-01-30T06:46:07;25.00;21.00;17.00
65383;PMS5003;51986;52.788;41.368;2024-01-30T06:48:34;24.00;21.00;16.00
65383;PMS5003;51986;52.788;41.368;2024-01-30T06:51:01;30.25;23.75;18.00
65383;PMS5003;51986;52.788;41.368;2024-01-30T06:53:28;30.00;25.00;19.00
65383;PMS5003;51986;52.788;41.368;2024-01-30T06:55:55;31.00;25.50;20.00
65383;PMS5003;51986;52.788;41.368;2024-01-30T06:58:22;28.25;24.00;18.50
65383;PMS5003;51986;52.788;41.368;2024-01-30T07:00:51;31.00;26.00;20.00
65383;PMS5003;51986;52.788;41.368;2024-01-30T07:03:18;31.00;26.00;20.00
65383;PMS5003;51986;52.788;41.368;2024-01-30T07:05:47;27.00;23.00;17.00
65383;PMS5003;51986;52.788;41.368;2024-01-30T07:08:15;25.00;21.25;17.00
65383;PMS5003;51986;52.788;41.368;2024-01-30T07:10:45;32.50;25.50;19.50
65383;PMS5003;51986;52.788;41.368;2024-01-30T07:13:13;34.50;27.00;20.00
65383;PMS5003;51986;52.788;41.368;2024-01-30T07:15:43;34.75;28.50;20.50
65383;PMS5003;51986;52.788;41.368;2024-01-30T07:18:12;34.50;29.00;21.25
65383;PMS5003;51986;52.788;41.368;2024-01-30T07:20:39;33.00;27.00;21.00
65383;PMS5003;51986;52.788;41.368;2024-01-30T07:23:06;32.00;27.25;20.00
65383;PMS5003;51986;52.788;41.368;2024-01-30T07:25:36;30.00;26.00;20.00
65383;PMS5003;51986;52.788;41.368;2024-01-30T07:28:04;31.75;26.50;20.00
65383;PMS5003;51986;52.788;41.368;2024-01-30T07:30:32;30.25;24.00;18.00
65383;PMS5003;51986;52.788;41.368;2024-01-30T07:33:00;27.00;23.00;18.00
65383;PMS5003;51986;52.788;41.368;2024-01-30T07:35:27;30.25;25.00;19.00
65383;PMS5003;51986;52.788;41.368;2024-01-30T07:37:54;28.00;24.00;18.00
65383;PMS5003;51986;52.788;41.368;2024-01-30T07:40:21;31.00;25.25;19.50
65383;PMS5003;51986;52.788;41.368;2024-01-30T07:42:48;30.00;25.00;19.00
65383;PMS5003;51986;52.788;41.368;2024-01-30T07:45:18;30.00;25.25;19.25
65383;PMS5003;51986;52.788;41.368;2024-01-30T07:47:46;30.00;26.00;20.00
65383;PMS5003;51986;52.788;41.368;2024-01-30T07:50:13;28.50;24.50;19.00
65383;PMS5003;51986;52.788;41.368;2024-01-30T07:52:42;29.50;25.50;19.50
65383;PMS5003;51986;52.788;41.368;2024-01-30T07:55:44;28.00;24.25;18.00
65383;PMS5003;51986;52.788;41.368;2024-01-30T07:58:22;27.75;23.00;18.00
65383;PMS5003;51986;52.788;41.368;2024-01-30T08:00:51;30.25;25.00;19.00
65383;PMS5003;51986;52.788;41.368;2024-01-30T08:03:18;30.00;25.00;19.00
65383;PMS5003;51986;52.788;41.368;2024-01-30T08:05:45;31.00;25.50;18.00
65383;PMS5003;51986;52.788;41.368;2024-01-30T08:08:12;33.25;28.00;20.00
65383;PMS5003;51986;52.788;41.368;2024-01-30T08:10:43;34.50;28.25;21.00
65383;PMS5003;51986;52.788;41.368;2024-01-30T08:13:10;34.00;28.00;21.00
65383;PMS5003;51986;52.788;41.368;2024-01-30T08:15:37;32.00;26.00;20.00
65383;PMS5003;51986;52.788;41.368;2024-01-30T08:18:06;30.00;25.00;18.00
65383;PMS5003;51986;52.788;41.368;2024-01-30T08:20:33;33.00;27.50;20.00
65383;PMS5003;51986;52.788;41.368;2024-01-30T08:23:03;38.00;29.50;22.00
65383;PMS5003;51986;52.788;41.368;2024-01-30T08:25:30;36.00;29.00;22.00
65383;PMS5003;51986;52.788;41.368;2024-01-30T08:27:57;32.00;26.00;20.00
65383;PMS5003;51986;52.788;41.368;2024-01-30T08:30:27;33.50;27.75;21.00
65383;PMS5003;51986;52.788;41.368;2024-01-30T08:32:54;34.25;27.00;20.75
65383;PMS5003;51986;52.788;41.368;2024-01-30T08:35:25;34.50;28.00;21.50
65383;PMS5003;51986;52.788;41.368;2024-01-30T08:37:52;35.00;28.00;22.00
65383;PMS5003;51986;52.788;41.368;2024-01-30T08:40:19;35.00;28.00;21.00
65383;PMS5003;51986;52.788;41.368;2024-01-30T08:42:46;34.00;28.00;21.00
65383;PMS5003;51986;52.788;41.368;2024-01-30T08:45:13;35.75;29.00;22.00
65383;PMS5003;51986;52.788;41.368;2024-01-30T08:47:40;35.00;28.00;21.00
65383;PMS5003;51986;52.788;41.368;2024-01-30T08:50:07;32.25;26.00;20.00
65383;PMS5003;51986;52.788;41.368;2024-01-30T08:52:35;34.50;28.00;21.00
65383;PMS5003;51986;52.788;41.368;2024-01-30T08:55:02;33.00;28.00;21.00
65383;PMS5003;51986;52.788;41.368;2024-01-30T08:57:30;31.00;25.50;20.00
65383;PMS5003;51986;52.788;41.368;2024-01-30T09:00:03;28.00;24.00;18.00
65383;PMS5003;51986;52.788;41.368;2024-01-30T09:02:30;26.50;23.00;18.00
65383;PMS5003;51986;52.788;41.368;2024-01-30T09:04:57;31.00;26.50;20.00
65383;PMS5003;51986;52.788;41.368;2024-01-30T09:07:25;33.00;28.00;21.00
65383;PMS5003;51986;52.788;41.368;2024-01-30T09:09:52;35.25;29.25;22.00
65383;PMS5003;51986;52.788;41.368;2024-01-30T09:12:19;33.25;26.00;20.00
65383;PMS5003;51986;52.788;41.368;2024-01-30T09:14:46;32.50;26.50;20.00
65383;PMS5003;51986;52.788;41.368;2024-01-30T09:17:13;31.00;26.00;19.00
65383;PMS5003;51986;52.788;41.368;2024-01-30T09:19:41;33.00;28.00;20.50
65383;PMS5003;51986;52.788;41.368;2024-01-30T09:22:08;30.75;25.50;20.00
65383;PMS5003;51986;52.788;41.368;2024-01-30T09:24:38;30.00;25.00;19.00
65383;PMS5003;51986;52.788;41.368;2024-01-30T09:27:09;31.75;25.75;20.00
65383;PMS5003;51986;52.788;41.368;2024-01-30T09:29:36;32.00;26.00;20.00
65383;PMS5003;51986;52.788;41.368;2024-01-30T09:32:04;32.00;27.00;20.50
65383;PMS5003;51986;52.788;41.368;2024-01-30T09:34:31;33.00;27.00;20.00
65383;PMS5003;51986;52.788;41.368;2024-01-30T09:36:59;33.00;27.00;20.50
65383;PMS5003;51986;52.788;41.368;2024-01-30T09:39:26;34.00;28.00;22.00
65383;PMS5003;51986;52.788;41.368;2024-01-30T09:44:47;33.00;27.00;21.00
65383;PMS5003;51986;52.788;41.368;2024-01-30T09:47:17;31.00;26.00;20.00
65383;PMS5003;51986;52.788;41.368;2024-01-30T09:49:45;32.25;27.00;20.00
65383;PMS5003;51986;52.788;41.368;2024-01-30T09:52:20;28.00;24.00;19.00
65383;PMS5003;51986;52.788;41.368;2024-01-30T09:54:51;26.50;23.00;18.00
65383;PMS5003;51986;52.788;41.368;2024-01-30T09:57:21;26.75;22.00;18.00
65383;PMS5003;51986;52.788;41.368;2024-01-30T09:59:50;30.00;25.50;20.00
65383;PMS5003;51986;52.788;41.368;2024-01-30T10:02:17;32.50;27.75;21.00
65383;PMS5003;51986;52.788;41.368;2024-01-30T10:04:49;28.00;24.25;19.00
65383;PMS5003;51986;52.788;41.368;2024-01-30T10:07:17;31.25;26.25;20.50
65383;PMS5003;51986;52.788;41.368;2024-01-30T10:09:45;36.00;30.00;22.00
65383;PMS5003;51986;52.788;41.368;2024-01-30T10:12:13;31.00;26.00;20.00
65383;PMS5003;51986;52.788;41.368;2024-01-30T10:14:40;33.00;27.00;21.00
65383;PMS5003;51986;52.788;41.368;2024-01-30T10:17:12;34.00;28.00;22.00
65383;PMS5003;51986;52.788;41.368;2024-01-30T10:19:53;33.50;27.50;21.00
65383;PMS5003;51986;52.788;41.368;2024-01-30T10:22:21;32.00;26.00;20.00
65383;PMS5003;51986;52.788;41.368;2024-01-30T10:24:48;30.00;25.00;20.00
65383;PMS5003;51986;52.788;41.368;2024-01-30T10:27:15;28.75;24.50;19.00
65383;PMS5003;51986;52.788;41.368;2024-01-30T10:29:42;29.00;24.00;18.00
65383;PMS5003;51986;52.788;41.368;2024-01-30T10:32:11;28.00;24.00;18.00
65383;PMS5003;51986;52.788;41.368;2024-01-30T10:34:39;35.00;29.50;21.25
65383;PMS5003;51986;52.788;41.368;2024-01-30T10:37:09;31.00;27.00;20.50
65383;PMS5003;51986;52.788;41.368;2024-01-30T10:39:39;34.00;27.50;21.00
65383;PMS5003;51986;52.788;41.368;2024-01-30T10:42:07;31.50;25.75;20.00
65383;PMS5003;51986;52.788;41.368;2024-01-30T10:45:00;31.00;26.75;20.00
65383;PMS5003;51986;52.788;41.368;2024-01-30T10:47:32;32.25;27.00;21.00
65383;PMS5003;51986;52.788;41.368;2024-01-30T10:50:01;33.25;28.00;22.00
65383;PMS5003;51986;52.788;41.368;2024-01-30T10:52:30;31.25;26.00;21.00
65383;PMS5003;51986;52.788;41.368;2024-01-30T10:54:59;30.00;25.00;19.00
65383;PMS5003;51986;52.788;41.368;2024-01-30T10:57:30;31.00;26.00;20.00
65383;PMS5003;51986;52.788;41.368;2024-01-30T11:00:01;33.00;27.00;21.00
65383;PMS5003;51986;52.788;41.368;2024-01-30T11:02:30;33.00;28.00;21.00
65383;PMS5003;51986;52.788;41.368;2024-01-30T11:04:59;34.00;28.75;22.00
65383;PMS5003;51986;52.788;41.368;2024-01-30T11:07:27;31.25;27.00;20.00
65383;PMS5003;51986;52.788;41.368;2024-01-30T11:12:32;33.00;27.00;21.00
65383;PMS5003;51986;52.788;41.368;2024-01-30T11:15:07;32.25;27.00;21.00
65383;PMS5003;51986;52.788;41.368;2024-01-30T11:20:22;31.00;25.25;20.00
65383;PMS5003;51986;52.788;41.368;2024-01-30T11:22:53;31.00;26.00;21.00
65383;PMS5003;51986;52.788;41.368;2024-01-30T11:25:21;31.00;25.00;20.00
65383;PMS5003;51986;52.788;41.368;2024-01-30T11:27:52;33.00;27.00;21.00
65383;PMS5003;51986;52.788;41.368;2024-01-30T11:30:24;34.00;28.00;21.75
65383;PMS5003;51986;52.788;41.368;2024-01-30T11:35:29;31.50;27.00;21.00
65383;PMS5003;51986;52.788;41.368;2024-01-30T11:37:59;33.00;27.00;21.00
65383;PMS5003;51986;52.788;41.368;2024-01-30T11:40:30;33.00;27.00;21.00
65383;PMS5003;51986;52.788;41.368;2024-01-30T11:42:59;32.50;27.00;21.00
65383;PMS5003;51986;52.788;41.368;2024-01-30T11:45:30;30.25;25.00;20.00
65383;PMS5003;51986;52.788;41.368;2024-01-30T11:47:57;30.00;25.00;20.00
65383;PMS5003;51986;52.788;41.368;2024-01-30T11:50:25;32.00;26.25;21.00
65383;PMS5003;51986;52.788;41.368;2024-01-30T11:52:54;30.50;25.00;19.00
65383;PMS5003;51986;52.788;41.368;2024-01-30T11:55:23;31.00;26.50;20.50
65383;PMS5003;51986;52.788;41.368;2024-01-30T11:57:50;31.00;26.50;20.00
65383;PMS5003;51986;52.788;41.368;2024-01-30T12:00:18;30.00;26.00;20.00
65383;PMS5003;51986;52.788;41.368;2024-01-30T12:02:49;31.00;26.50;20.00
65383;PMS5003;51986;52.788;41.368;2024-01-30T12:05:19;32.25;27.00;20.00
65383;PMS5003;51986;52.788;41.368;2024-01-30T12:07:46;32.75;27.50;21.00
65383;PMS5003;51986;52.788;41.368;2024-01-30T12:10:14;30.00;25.50;19.00
65383;PMS5003;51986;52.788;41.368;2024-01-30T12:12:42;28.00;24.00;18.00
65383;PMS5003;51986;52.788;41.368;2024-01-30T12:15:13;28.25;23.00;18.00
65383;PMS5003;51986;52.788;41.368;2024-01-30T12:17:41;30.25;24.00;19.00
65383;PMS5003;51986;52.788;41.368;2024-01-30T12:20:09;32.00;26.00;20.00
65383;PMS5003;51986;52.788;41.368;2024-01-30T12:22:37;32.75;26.00;21.00
65383;PMS5003;51986;52.788;41.368;2024-01-30T12:25:07;29.00;25.00;20.00
65383;PMS5003;51986;52.788;41.368;2024-01-30T12:27:45;26.75;24.00;18.00
65383;PMS5003;51986;52.788;41.368;2024-01-30T12:30:14;26.50;23.25;18.00
65383;PMS5003;51986;52.788;41.368;2024-01-30T12:32:43;30.00;24.25;19.75
65383;PMS5003;51986;52.788;41.368;2024-01-30T12:35:19;27.50;24.00;19.00
65383;PMS5003;51986;52.788;41.368;2024-01-30T12:37:50;27.00;23.00;18.00
65383;PMS5003;51986;52.788;41.368;2024-01-30T12:40:23;27.50;24.00;19.00
65383;PMS5003;51986;52.788;41.368;2024-01-30T12:42:53;31.50;26.00;20.25
65383;PMS5003;51986;52.788;41.368;2024-01-30T12:45:20;33.00;27.00;21.00
65383;PMS5003;51986;52.788;41.368;2024-01-30T12:47:50;33.00;27.50;21.00
65383;PMS5003;51986;52.788;41.368;2024-01-30T12:50:20;33.00;28.00;21.00
65383;PMS5003;51986;52.788;41.368;2024-01-30T12:52:47;31.00;26.00;21.00
65383;PMS5003;51986;52.788;41.368;2024-01-30T12:55:16;31.00;27.00;21.00
65383;PMS5003;51986;52.788;41.368;2024-01-30T12:57:44;30.00;25.00;20.00
65383;PMS5003;51986;52.788;41.368;2024-01-30T13:00:13;30.00;24.00;19.00
65383;PMS5003;51986;52.788;41.368;2024-01-30T13:02:41;32.50;27.00;20.00
65383;PMS5003;51986;52.788;41.368;2024-01-30T13:05:09;33.75;27.25;21.00
65383;PMS5003;51986;52.788;41.368;2024-01-30T13:07:37;30.00;25.00;20.00
65383;PMS5003;51986;52.788;41.368;2024-01-30T13:10:04;31.00;25.50;20.00
65383;PMS5003;51986;52.788;41.368;2024-01-30T13:12:42;30.00;24.00;19.00
65383;PMS5003;51986;52.788;41.368;2024-01-30T13:15:09;29.50;25.00;19.50
65383;PMS5003;51986;52.788;41.368;2024-01-30T13:17:36;30.50;25.00;20.00
65383;PMS5003;51986;52.788;41.368;2024-01-30T13:20:04;30.00;25.00;20.00
65383;PMS5003;51986;52.788;41.368;2024-01-30T13:22:37;30.75;25.75;20.00
65383;PMS5003;51986;52.788;41.368;2024-01-30T13:25:05;28.50;24.00;18.00
65383;PMS5003;51986;52.788;41.368;2024-01-30T13:27:32;28.50;24.00;18.00
65383;PMS5003;51986;52.788;41.368;2024-01-30T13:29:59;30.50;25.50;19.25
65383;PMS5003;51986;52.788;41.368;2024-01-30T13:32:26;28.00;25.00;19.00
65383;PMS5003;51986;52.788;41.368;2024-01-30T13:34:53;28.00;24.00;18.00
65383;PMS5003;51986;52.788;41.368;2024-01-30T13:37:23;26.50;23.75;17.25
65383;PMS5003;51986;52.788;41.368;2024-01-30T13:39:50;26.00;23.00;18.00
65383;PMS5003;51986;52.788;41.368;2024-01-30T13:42:17;27.00;22.75;18.00
65383;PMS5003;51986;52.788;41.368;2024-01-30T13:44:47;30.00;25.00;19.00
65383;PMS5003;51986;52.788;41.368;2024-01-30T13:47:14;28.75;24.00;18.00
65383;PMS5003;51986;52.788;41.368;2024-01-30T13:49:43;28.00;22.00;18.00